Thursday, July 31, 2014, 5:24 AM EDT

KMDT, Harrisburg International Airport

Location: Middletown, PA, United States Lat: 40.2
Local Time: 5:24 AM EDT ( 9:24 GMT) Lon: -76.767
Time Zone: US/Eastern Elev: 308 ft

Show me the last for .
Show Decoded

2014-07-31 05:05 METAR KMDT 310905Z 00000KT 6SM BR FEW005 FEW120 18/16 A3005 RMK AO2 T01780161 $
                 =
2014-07-31 04:56 METAR KMDT 310856Z 00000KT 6SM BR FEW090 SCT130 18/16 A3005 RMK AO2 SLP175
                 T01780161 55002 $ =
2014-07-31 03:56 METAR KMDT 310756Z 00000KT 8SM FEW085 BKN120 18/17 A3004 =
2014-07-31 02:56 METAR KMDT 310656Z 35003KT 8SM FEW080 OVC110 18/17 A3005 RMK AO2 SLP175
                 T01830167 $ =
2014-07-31 01:56 METAR KMDT 310556Z 13003KT 10SM SCT085 OVC110 18/16 A3006 RMK AO2 RAE39 SLP177
                 P0000 60005 T01830161 10233 20178 58000 $ =
2014-07-31 00:56 METAR KMDT 310456Z 00000KT 10SM -RA FEW055 SCT075 OVC110 18/16 A3006 RMK AO2
                 RAE35B55 SLP178 P0002 T01830161 402610133 $ =
2014-07-30 23:56 METAR KMDT 310356Z 28007KT 7SM RA FEW055 BKN070 OVC085 18/16 A3007 =
2014-07-30 22:56 METAR KMDT 310256Z 35004KT 10SM SCT060 BKN080 OVC110 20/13 A3006 =
2014-07-30 21:56 METAR KMDT 310156Z 36007KT 10SM SCT080 BKN130 BKN250 22/13 A3006 RMK AO2 SLP177
                 T02220128 $ =
2014-07-30 20:56 METAR KMDT 310056Z 21006KT 10SM FEW060 SCT120 SCT250 22/13 A3004 RMK AO2 SLP171
                 T02220133 $ =
2014-07-30 19:56 METAR KMDT 302356Z 22005KT 10SM FEW065 FEW120 SCT250 23/13 A3002 =
2014-07-30 18:56 METAR KMDT 302256Z 20006KT 10SM FEW065 24/13 A3001 RMK AO2 SLP161 T02440128 $ =
2014-07-30 17:56 METAR KMDT 302156Z VRB04KT 10SM FEW060 26/13 A3000 =
2014-07-30 16:56 METAR KMDT 302056Z VRB04KT 10SM SCT055 26/13 A3001 RMK AO2 SLP161 T02560128 $ =
2014-07-30 15:56 METAR KMDT 301956Z 20006KT 10SM SCT055 26/13 A3002 RMK AO2 SLP164 T02560133 =
2014-07-30 14:56 METAR KMDT 301856Z 00000KT 10SM SCT055 24/12 A3003 =
2014-07-30 13:56 METAR KMDT 301756Z 15005KT 10SM BKN050 24/13 A3004 =
2014-07-30 12:56 METAR KMDT 301656Z 28004KT 10SM SCT035 24/11 A3005 =
2014-07-30 11:56 METAR KMDT 301556Z 00000KT 10SM CLR 23/13 A3006 =
2014-07-30 10:56 METAR KMDT 301456Z 32004KT 10SM CLR 22/12 A3007 =
2014-07-30 09:56 METAR KMDT 301356Z 30005KT 10SM CLR 19/13 A3006 =
2014-07-30 08:56 METAR KMDT 301256Z 33006KT 10SM CLR 17/12 A3007 RMK AO2 SLP182 T01720122 =
2014-07-30 07:56 METAR KMDT 301156Z 00000KT 10SM CLR 16/12 A3006 =
2014-07-30 06:56 METAR KMDT 301056Z 00000KT 10SM CLR 15/12 A3005 =
2014-07-30 05:56 METAR KMDT 300956Z 00000KT 10SM FEW090 14/12 A3003 =

Support USWX by starting your Amazon purchase here.